Time;durP1;ratioP1;P1;durP2;ratioP2;P2;SDS_P1;SDS_P2;PMS_P1;PMS_P2;Temp;Humidity;BMP_temperature;BMP_pressure;BME280_temperature;BME280_humidity;BME280_pressure;Samples;Min_cycle;Max_cycle;Signal;HPM_P1;HPM_P2
2022/11/25 00:01:18;;;;;;;2.67;1.80;;;2.20;99.90;;;;;;5044855;28;20231;-84
2022/11/25 00:03:46;;;;;;;4.10;2.00;;;2.20;99.90;;;;;;5041050;28;20234;-83
2022/11/25 00:06:14;;;;;;;2.53;1.70;;;2.20;99.90;;;;;;5046610;28;20304;-84
2022/11/25 00:08:43;;;;;;;4.40;2.03;;;2.20;99.90;;;;;;5050006;28;20293;-84
2022/11/25 00:11:12;;;;;;;1.83;1.67;;;2.20;99.90;;;;;;5049823;28;20226;-84
2022/11/25 00:13:40;;;;;;;3.00;1.80;;;2.10;99.90;;;;;;5043423;28;20632;-84
2022/11/25 00:16:09;;;;;;;2.63;2.20;;;2.10;99.90;;;;;;5045972;28;20609;-84
2022/11/25 00:18:36;;;;;;;2.30;1.80;;;2.10;99.90;;;;;;5045282;28;20229;-84
2022/11/25 00:21:06;;;;;;;2.27;1.70;;;2.10;99.90;;;;;;5048466;28;20224;-84
2022/11/25 00:23:33;;;;;;;2.83;2.10;;;2.00;99.90;;;;;;5047075;28;20198;-84
2022/11/25 00:26:07;;;;;;;2.30;1.73;;;1.90;99.90;;;;;;5048665;28;20234;-84
2022/11/25 00:28:35;;;;;;;1.83;1.70;;;1.90;99.90;;;;;;5049815;28;20202;-85
2022/11/25 00:31:06;;;;;;;2.53;1.73;;;1.90;99.90;;;;;;5048800;28;20232;-84
2022/11/25 00:33:33;;;;;;;2.50;2.00;;;1.90;99.90;;;;;;5046267;28;20663;-84
2022/11/25 00:36:01;;;;;;;2.30;1.83;;;1.80;99.90;;;;;;5038851;28;20205;-84
2022/11/25 00:38:28;;;;;;;2.43;1.83;;;1.80;99.90;;;;;;5044973;28;20702;-84
2022/11/25 00:44:34;;;;;;;3.53;1.50;;;1.80;99.90;;;;;;5046587;28;20306;-84
2022/11/25 00:46:29;;;;;;;2.77;1.60;;;1.90;99.90;;;;;;5042510;28;20339;-84
2022/11/25 00:48:55;;;;;;;3.20;1.87;;;1.80;99.90;;;;;;5048283;28;20205;-84
2022/11/25 00:51:22;;;;;;;3.83;1.90;;;1.80;99.90;;;;;;5045758;28;20226;-84
2022/11/25 00:53:49;;;;;;;2.63;1.53;;;1.80;99.90;;;;;;5049817;28;20222;-84
2022/11/25 00:56:16;;;;;;;1.80;1.47;;;1.90;99.90;;;;;;5041403;28;20211;-84
2022/11/25 00:58:46;;;;;;;2.20;1.80;;;2.00;99.90;;;;;;5045301;28;20197;-85
2022/11/25 01:01:14;;;;;;;2.57;1.67;;;1.90;99.90;;;;;;5040730;28;20210;-84
2022/11/25 01:03:41;;;;;;;2.63;1.70;;;1.80;99.90;;;;;;5045796;28;20300;-84
2022/11/25 01:06:11;;;;;;;3.27;1.90;;;1.70;99.90;;;;;;5036497;28;20205;-84
2022/11/25 01:08:38;;;;;;;2.40;1.63;;;1.70;99.90;;;;;;5040419;28;20252;-84
2022/11/25 01:11:07;;;;;;;3.40;1.70;;;1.70;99.90;;;;;;5045923;28;20229;-84
2022/11/25 01:13:34;;;;;;;2.37;1.80;;;1.70;99.90;;;;;;5038701;28;20277;-84
2022/11/25 01:16:03;;;;;;;1.90;1.67;;;1.70;99.90;;;;;;5037804;28;20289;-84
2022/11/25 01:18:31;;;;;;;2.13;1.60;;;1.60;99.90;;;;;;5047862;28;20741;-85
2022/11/25 01:21:06;;;;;;;2.23;1.50;;;1.70;99.90;;;;;;5045298;28;20202;-84
2022/11/25 01:23:33;;;;;;;3.10;1.70;;;1.60;99.90;;;;;;5046184;28;20193;-84
2022/11/25 01:26:02;;;;;;;2.10;1.67;;;1.60;99.90;;;;;;5050559;28;20293;-84
2022/11/25 01:28:29;;;;;;;2.20;1.60;;;1.60;99.90;;;;;;5050511;28;20603;-84
2022/11/25 01:31:02;;;;;;;2.13;1.67;;;1.70;99.90;;;;;;5050098;28;20225;-84
2022/11/25 01:33:31;;;;;;;2.17;1.60;;;1.80;99.90;;;;;;5042667;28;20619;-84
2022/11/25 01:36:01;;;;;;;2.13;1.80;;;1.80;99.90;;;;;;5042746;28;20202;-84
2022/11/25 01:38:28;;;;;;;4.33;1.50;;;1.80;99.90;;;;;;5047351;28;20202;-84
2022/11/25 01:40:55;;;;;;;1.63;1.53;;;1.80;99.90;;;;;;5040319;28;20213;-85
2022/11/25 01:43:27;;;;;;;1.47;1.37;;;1.70;99.90;;;;;;5041178;28;20592;-84
2022/11/25 01:45:58;;;;;;;2.70;1.70;;;1.70;99.90;;;;;;5046586;28;20198;-85
2022/11/25 01:48:29;;;;;;;3.87;1.80;;;1.70;99.90;;;;;;5041816;28;20202;-84
2022/11/25 01:50:56;;;;;;;2.40;1.70;;;1.60;99.90;;;;;;5037584;28;20260;-84
2022/11/25 01:53:23;;;;;;;1.83;1.50;;;1.60;99.90;;;;;;5049065;28;20218;-84
2022/11/25 01:55:56;;;;;;;2.27;1.50;;;1.60;99.90;;;;;;5043781;28;20280;-84
2022/11/25 01:58:28;;;;;;;2.13;1.40;;;1.60;99.90;;;;;;5049576;28;20643;-84
2022/11/25 02:00:55;;;;;;;2.47;1.67;;;1.60;99.90;;;;;;5044759;28;20287;-84
2022/11/25 02:03:26;;;;;;;3.67;1.63;;;1.60;99.90;;;;;;5039053;28;20301;-85
2022/11/25 02:06:02;;;;;;;3.63;1.93;;;1.70;99.90;;;;;;5044048;28;20213;-84
2022/11/25 02:08:30;;;;;;;1.43;1.33;;;1.60;99.90;;;;;;5039212;28;20288;-84
2022/11/25 02:10:58;;;;;;;1.40;1.30;;;1.70;99.90;;;;;;5045116;28;20232;-84
2022/11/25 02:13:25;;;;;;;1.83;1.60;;;1.60;99.90;;;;;;5046218;28;20194;-84
2022/11/25 02:15:52;;;;;;;4.07;1.40;;;1.60;99.90;;;;;;5040036;28;20210;-84
2022/11/25 02:18:19;;;;;;;1.37;1.27;;;1.60;99.90;;;;;;5040795;28;20212;-84
2022/11/25 02:20:46;;;;;;;1.70;1.20;;;1.70;99.90;;;;;;5039236;28;20670;-84
2022/11/25 02:23:24;;;;;;;2.60;1.57;;;1.70;99.90;;;;;;5044644;28;20292;-85
2022/11/25 02:25:53;;;;;;;2.33;1.40;;;1.70;99.90;;;;;;5049271;28;20198;-84
2022/11/25 02:28:23;;;;;;;1.93;1.20;;;1.70;99.90;;;;;;5044171;28;20206;-84
2022/11/25 02:30:50;;;;;;;2.17;1.40;;;1.80;99.90;;;;;;5047234;28;20304;-84
2022/11/25 02:33:18;;;;;;;1.67;1.30;;;1.70;99.90;;;;;;5037648;28;20211;-84
2022/11/25 02:35:47;;;;;;;2.13;1.20;;;1.70;99.90;;;;;;5041758;28;20722;-84
2022/11/25 02:38:20;;;;;;;2.93;1.23;;;1.70;99.90;;;;;;5043249;28;20202;-84
2022/11/25 02:40:49;;;;;;;2.77;1.40;;;1.70;99.90;;;;;;5043176;28;20212;-84
2022/11/25 02:43:18;;;;;;;1.33;1.20;;;1.70;99.90;;;;;;5041436;28;20209;-84
2022/11/25 02:45:55;;;;;;;1.23;0.90;;;1.70;99.90;;;;;;5038363;28;20197;-84
2022/11/25 02:48:22;;;;;;;1.70;1.30;;;1.80;99.90;;;;;;5039759;28;20294;-84
2022/11/25 02:50:49;;;;;;;2.43;1.20;;;1.80;99.90;;;;;;5048107;28;20696;-84
2022/11/25 02:53:16;;;;;;;1.80;1.27;;;1.80;99.90;;;;;;5039672;28;20244;-84
2022/11/25 02:55:43;;;;;;;2.00;1.43;;;1.80;99.90;;;;;;5045528;28;20206;-84
2022/11/25 02:58:10;;;;;;;2.80;1.20;;;1.80;99.90;;;;;;5040619;28;20202;-84
2022/11/25 03:00:39;;;;;;;2.60;1.20;;;1.80;99.90;;;;;;5042618;28;20212;-85
2022/11/25 03:03:06;;;;;;;1.60;1.37;;;1.80;99.90;;;;;;5041044;28;20213;-84
2022/11/25 03:05:33;;;;;;;1.73;1.20;;;1.90;99.90;;;;;;5046999;28;20726;-84
2022/11/25 03:08:00;;;;;;;1.50;1.30;;;1.80;99.90;;;;;;5049522;28;20208;-84
2022/11/25 03:10:27;;;;;;;1.93;1.07;;;1.90;99.90;;;;;;5047562;28;20221;-84
2022/11/25 03:12:54;;;;;;;1.30;1.10;;;1.80;99.90;;;;;;5049295;28;20202;-84
2022/11/25 03:15:21;;;;;;;1.40;1.30;;;1.80;99.90;;;;;;5046855;28;20220;-84
2022/11/25 03:17:49;;;;;;;2.30;1.20;;;1.80;99.90;;;;;;5058771;28;20246;-84
2022/11/25 03:20:17;;;;;;;1.33;1.00;;;1.80;99.90;;;;;;5044625;28;20328;-84
2022/11/25 03:22:44;;;;;;;1.80;1.13;;;1.80;99.90;;;;;;5047387;28;20210;-84
2022/11/25 03:25:11;;;;;;;1.10;1.00;;;1.80;99.90;;;;;;5042675;28;20235;-84
2022/11/25 03:27:39;;;;;;;0.80;0.80;;;1.90;99.90;;;;;;5042681;28;20217;-84
2022/11/25 03:30:09;;;;;;;1.30;1.20;;;2.00;99.90;;;;;;5046064;28;20232;-84
2022/11/25 03:32:36;;;;;;;1.40;1.27;;;2.00;99.90;;;;;;5047505;28;20243;-85
2022/11/25 03:35:05;;;;;;;1.10;1.00;;;2.00;99.90;;;;;;5043817;28;20216;-85
2022/11/25 03:37:32;;;;;;;1.37;1.00;;;1.90;99.90;;;;;;5040970;28;20675;-85
2022/11/25 03:39:59;;;;;;;1.77;1.10;;;1.90;99.90;;;;;;5038595;28;20213;-84
2022/11/25 03:42:26;;;;;;;1.20;1.10;;;1.90;99.90;;;;;;5045553;28;20289;-85
2022/11/25 03:44:53;;;;;;;1.50;1.17;;;2.00;99.90;;;;;;5046578;28;20210;-84
2022/11/25 03:47:20;;;;;;;1.63;1.30;;;1.90;99.90;;;;;;5050549;28;20620;-84
2022/11/25 03:49:47;;;;;;;1.53;1.20;;;1.90;99.90;;;;;;5050808;28;20201;-84
2022/11/25 03:52:15;;;;;;;1.60;1.23;;;1.90;99.90;;;;;;5043390;28;20214;-84
2022/11/25 03:54:44;;;;;;;3.23;1.27;;;2.00;99.90;;;;;;5045399;28;20217;-85
2022/11/25 03:57:12;;;;;;;2.33;1.10;;;2.00;99.90;;;;;;5049132;28;20194;-85
2022/11/25 03:59:39;;;;;;;2.70;1.10;;;2.00;99.90;;;;;;5041342;28;20223;-84
2022/11/25 04:02:06;;;;;;;1.20;1.10;;;1.90;99.90;;;;;;5052539;28;20284;-84
2022/11/25 04:04:33;;;;;;;0.97;0.97;;;1.90;99.90;;;;;;5050922;28;20204;-84
2022/11/25 04:06:59;;;;;;;1.50;1.30;;;2.00;99.90;;;;;;5047328;28;20629;-84
2022/11/25 04:09:28;;;;;;;1.60;1.10;;;2.20;99.90;;;;;;5048143;28;20208;-84
2022/11/25 04:14:39;;;;;;;2.70;1.20;;;2.10;99.90;;;;;;5049869;28;20677;-84
2022/11/25 04:17:06;;;;;;;1.03;1.00;;;2.10;99.90;;;;;;5047530;28;20285;-84
2022/11/25 04:19:33;;;;;;;2.60;1.30;;;2.00;99.90;;;;;;5052592;28;20610;-85
2022/11/25 04:22:03;;;;;;;1.40;1.30;;;2.00;99.90;;;;;;5051686;28;20206;-84
2022/11/25 04:24:31;;;;;;;3.50;2.10;;;2.10;99.90;;;;;;5050868;28;20233;-85
2022/11/25 04:26:58;;;;;;;1.80;1.60;;;2.00;99.90;;;;;;5051355;28;20284;-84
2022/11/25 04:29:25;;;;;;;2.83;1.93;;;2.00;99.90;;;;;;5050968;28;20202;-84
2022/11/25 04:31:52;;;;;;;2.97;1.47;;;2.10;99.90;;;;;;5047170;28;20641;-85
2022/11/25 04:34:19;;;;;;;2.10;1.40;;;2.10;99.90;;;;;;5043920;28;20289;-84
2022/11/25 04:36:46;;;;;;;3.53;1.40;;;2.10;99.90;;;;;;5051127;28;20598;-84
2022/11/25 04:39:13;;;;;;;1.50;1.40;;;2.10;99.90;;;;;;5048694;28;20205;-85
2022/11/25 04:41:41;;;;;;;3.00;1.50;;;2.10;99.90;;;;;;5048089;28;20649;-84
2022/11/25 04:44:08;;;;;;;2.90;2.10;;;2.10;99.90;;;;;;5046920;28;20701;-84
2022/11/25 04:46:40;;;;;;;1.90;1.60;;;2.10;99.90;;;;;;5049230;28;20206;-84
2022/11/25 04:49:07;;;;;;;2.23;1.50;;;2.20;99.90;;;;;;5044319;28;20571;-84
2022/11/25 04:51:34;;;;;;;1.70;1.60;;;2.20;99.90;;;;;;5049688;28;20222;-84
2022/11/25 04:54:01;;;;;;;1.70;1.60;;;2.30;99.90;;;;;;5042929;28;20225;-84
2022/11/25 04:56:28;;;;;;;1.50;1.40;;;2.40;99.90;;;;;;5045724;28;20293;-85
2022/11/25 05:01:41;;;;;;;1.87;1.70;;;2.20;99.90;;;;;;5049163;28;20279;-84
2022/11/25 05:04:08;;;;;;;1.53;1.37;;;2.20;99.90;;;;;;5043921;28;20220;-84
2022/11/25 05:06:34;;;;;;;1.50;1.40;;;2.20;99.90;;;;;;5048177;28;20206;-84
2022/11/25 05:09:03;;;;;;;1.50;1.27;;;2.20;99.90;;;;;;5049171;28;20206;-85
2022/11/25 05:11:30;;;;;;;1.43;1.20;;;2.20;99.90;;;;;;5051253;28;20225;-84
2022/11/25 05:13:58;;;;;;;3.60;1.40;;;2.30;99.90;;;;;;5039895;28;20202;-84
2022/11/25 05:16:25;;;;;;;1.37;1.27;;;2.30;99.90;;;;;;5046292;28;20210;-84
2022/11/25 05:18:52;;;;;;;1.50;1.40;;;2.30;99.90;;;;;;5049883;28;20264;-84
2022/11/25 05:21:19;;;;;;;1.80;1.30;;;2.40;99.90;;;;;;5050010;28;20212;-84
2022/11/25 05:23:46;;;;;;;1.80;1.30;;;2.40;99.90;;;;;;5048936;28;20674;-84
2022/11/25 05:26:13;;;;;;;1.97;1.60;;;2.30;99.90;;;;;;5049049;28;20206;-84
2022/11/25 05:28:40;;;;;;;2.53;1.27;;;2.30;99.90;;;;;;5047193;28;20201;-85
2022/11/25 05:31:08;;;;;;;2.50;1.83;;;2.30;99.90;;;;;;5044420;28;20701;-84
2022/11/25 05:33:35;;;;;;;2.07;1.50;;;2.20;99.90;;;;;;5047618;28;20290;-84
2022/11/25 05:36:04;;;;;;;2.80;1.90;;;2.20;99.90;;;;;;5048039;28;20203;-84
2022/11/25 05:38:31;;;;;;;2.67;1.50;;;2.10;99.90;;;;;;5038945;28;20208;-84
2022/11/25 05:41:02;;;;;;;3.80;1.50;;;2.20;99.90;;;;;;5047206;28;20289;-82
2022/11/25 05:43:29;;;;;;;2.90;1.50;;;2.30;99.90;;;;;;5049773;28;20201;-82
2022/11/25 05:45:56;;;;;;;4.80;1.83;;;2.30;99.90;;;;;;5042686;28;20217;-87
2022/11/25 05:48:24;;;;;;;2.73;1.80;;;2.30;99.90;;;;;;5048437;28;20222;-85
2022/11/25 05:50:51;;;;;;;3.53;1.90;;;2.20;99.90;;;;;;5040220;28;20308;-82
2022/11/25 05:53:18;;;;;;;2.93;1.80;;;2.20;99.90;;;;;;5044117;28;20289;-85
2022/11/25 05:55:53;;;;;;;2.40;1.77;;;2.20;99.90;;;;;;5048957;28;20212;-84
2022/11/25 05:58:20;;;;;;;2.93;2.10;;;2.10;99.90;;;;;;5045892;28;20229;-83
2022/11/25 06:00:47;;;;;;;2.87;2.10;;;2.10;99.90;;;;;;5043542;28;20202;-86
2022/11/25 06:03:14;;;;;;;2.73;2.10;;;2.20;99.90;;;;;;5045698;28;20657;-87
2022/11/25 06:05:43;;;;;;;4.37;2.10;;;2.20;99.90;;;;;;5045307;28;20202;-87
2022/11/25 06:08:11;;;;;;;3.03;2.10;;;2.10;99.90;;;;;;5044196;28;20201;-86
2022/11/25 06:10:39;;;;;;;2.87;2.10;;;2.00;99.90;;;;;;5044204;28;20733;-85
2022/11/25 06:13:14;;;;;;;2.33;1.90;;;1.90;99.90;;;;;;5043656;28;20209;-87
2022/11/25 06:15:42;;;;;;;2.27;1.70;;;1.90;99.90;;;;;;5047351;28;20612;-85
2022/11/25 06:18:09;;;;;;;2.83;1.63;;;1.80;99.90;;;;;;5044242;28;20284;-85
2022/11/25 06:20:39;;;;;;;2.17;1.60;;;1.80;99.90;;;;;;5048105;28;20197;-84
2022/11/25 06:23:07;;;;;;;1.63;1.50;;;1.90;99.90;;;;;;5047973;28;20686;-85
2022/11/25 06:25:44;;;;;;;2.60;1.47;;;1.90;99.90;;;;;;5048392;28;20349;-85
2022/11/25 06:28:11;;;;;;;1.80;1.40;;;1.90;99.90;;;;;;5046899;28;20287;-85
2022/11/25 06:30:38;;;;;;;2.10;1.60;;;2.00;99.90;;;;;;5047988;28;20324;-87
2022/11/25 06:33:05;;;;;;;2.03;1.30;;;2.10;99.90;;;;;;5046744;28;20209;-84
2022/11/25 06:35:32;;;;;;;1.87;1.50;;;2.10;99.90;;;;;;5044478;28;20213;-84
2022/11/25 06:37:59;;;;;;;2.40;1.57;;;2.20;99.90;;;;;;5047693;28;20746;-84
2022/11/25 06:40:27;;;;;;;1.83;1.60;;;2.20;99.90;;;;;;5047081;28;20721;-84
2022/11/25 06:42:54;;;;;;;2.00;1.80;;;2.20;99.90;;;;;;5050002;28;20288;-84
2022/11/25 06:45:21;;;;;;;2.00;1.60;;;2.20;99.90;;;;;;5048370;28;20299;-84
2022/11/25 06:47:48;;;;;;;2.87;1.83;;;2.20;99.90;;;;;;5049258;28;20224;-84
2022/11/25 06:50:15;;;;;;;2.03;1.60;;;2.20;99.90;;;;;;5040421;28;20203;-84
2022/11/25 06:52:42;;;;;;;3.77;1.83;;;2.20;99.90;;;;;;5046116;28;20305;-84
2022/11/25 06:55:15;;;;;;;4.57;1.97;;;2.30;99.90;;;;;;5047173;28;20692;-84
2022/11/25 06:57:46;;;;;;;2.17;1.80;;;2.30;99.90;;;;;;5040256;28;20737;-84
2022/11/25 07:00:14;;;;;;;2.37;2.10;;;2.30;99.90;;;;;;5043828;28;20301;-84
2022/11/25 07:02:41;;;;;;;2.70;1.90;;;2.30;99.90;;;;;;5045373;28;20285;-84
2022/11/25 07:05:08;;;;;;;1.97;1.63;;;2.30;99.90;;;;;;5043321;28;20229;-82
2022/11/25 07:07:36;;;;;;;12.53;3.63;;;2.20;99.90;;;;;;5046825;28;20319;-86
2022/11/25 07:10:09;;;;;;;2.53;1.70;;;2.30;99.90;;;;;;5046226;28;20666;-86
2022/11/25 07:12:36;;;;;;;1.83;1.53;;;2.40;99.90;;;;;;5046825;28;20221;-81
2022/11/25 07:15:06;;;;;;;3.40;1.87;;;2.50;99.90;;;;;;5047516;28;20279;-84
2022/11/25 07:17:33;;;;;;;3.80;1.90;;;2.50;99.90;;;;;;5048843;28;20214;-82
2022/11/25 07:20:00;;;;;;;2.97;1.87;;;2.70;99.90;;;;;;5045208;28;20280;-82
2022/11/25 07:22:27;;;;;;;4.40;1.93;;;2.60;99.90;;;;;;5047228;28;20206;-83
2022/11/25 07:24:53;;;;;;;2.40;1.80;;;2.60;99.90;;;;;;5045614;28;20371;-82
2022/11/25 07:27:21;;;;;;;2.57;1.97;;;2.60;99.90;;;;;;5043588;28;20206;-83
2022/11/25 07:29:49;;;;;;;3.10;2.10;;;2.70;99.90;;;;;;5037820;28;20281;-87
2022/11/25 07:32:22;;;;;;;4.70;2.50;;;2.80;99.90;;;;;;5023701;28;20226;-83
2022/11/25 07:34:50;;;;;;;3.97;2.23;;;2.90;99.90;;;;;;5049800;28;20209;-85
2022/11/25 07:37:17;;;;;;;2.53;2.00;;;2.90;99.90;;;;;;5052884;28;20293;-84
2022/11/25 07:39:44;;;;;;;3.70;2.33;;;3.00;99.90;;;;;;5047973;28;20197;-85
2022/11/25 07:42:11;;;;;;;2.70;2.10;;;3.10;99.90;;;;;;5051254;28;20574;-85
2022/11/25 07:44:38;;;;;;;3.17;2.37;;;3.30;99.90;;;;;;5048781;28;20212;-85
2022/11/25 07:47:05;;;;;;;5.00;2.57;;;3.40;99.90;;;;;;5044520;28;20619;-88
2022/11/25 07:49:33;;;;;;;3.53;2.87;;;3.60;99.20;;;;;;5046061;28;20209;-87
2022/11/25 07:52:01;;;;;;;4.03;2.97;;;3.70;98.90;;;;;;5046791;28;20344;-86
2022/11/25 07:54:33;;;;;;;4.50;3.43;;;3.60;98.60;;;;;;5046229;28;20226;-86
2022/11/25 07:57:03;;;;;;;7.33;3.70;;;3.60;99.10;;;;;;5049064;28;20207;-88
2022/11/25 07:59:30;;;;;;;5.07;3.70;;;3.50;99.30;;;;;;5045850;28;20662;-89
2022/11/25 08:01:57;;;;;;;4.57;2.90;;;3.50;99.70;;;;;;5045426;28;20290;-89
2022/11/25 08:04:24;;;;;;;3.43;2.53;;;3.40;99.80;;;;;;5046886;28;20242;-89
2022/11/25 08:06:58;;;;;;;3.60;2.70;;;3.40;99.60;;;;;;5047955;28;20207;-88
2022/11/25 08:09:25;;;;;;;4.20;2.70;;;3.40;99.40;;;;;;5041427;28;20220;-89
2022/11/25 08:11:52;;;;;;;3.63;2.40;;;3.50;99.90;;;;;;5042801;28;20218;-89
2022/11/25 08:14:20;;;;;;;4.10;2.90;;;3.50;99.70;;;;;;5045269;28;20209;-88
2022/11/25 08:16:47;;;;;;;4.50;2.50;;;3.60;99.90;;;;;;5047287;28;20194;-87
2022/11/25 08:19:16;;;;;;;4.43;2.30;;;3.60;99.70;;;;;;5049055;28;20256;-88
2022/11/25 08:21:43;;;;;;;3.53;2.20;;;3.90;99.90;;;;;;5048833;28;20281;-86
2022/11/25 08:24:14;;;;;;;2.77;2.17;;;4.20;99.50;;;;;;5050467;28;20206;-84
2022/11/25 08:26:42;;;;;;;2.67;2.03;;;4.50;98.20;;;;;;5047808;28;20296;-86
2022/11/25 08:29:12;;;;;;;4.20;2.43;;;4.40;97.10;;;;;;5050577;28;20289;-87
2022/11/25 08:31:39;;;;;;;5.93;3.73;;;4.50;97.90;;;;;;5041597;28;20645;-86
2022/11/25 08:34:07;;;;;;;7.25;3.75;;;5.10;98.00;;;;;;5050600;28;20294;-88
2022/11/25 08:36:35;;;;;;;5.17;3.53;;;5.30;96.10;;;;;;5039790;28;20696;-89
2022/11/25 08:39:06;;;;;;;4.03;3.33;;;5.10;95.30;;;;;;5043685;28;20522;-88
2022/11/25 08:41:36;;;;;;;5.50;3.38;;;4.80;95.60;;;;;;5044743;28;20198;-88
2022/11/25 08:44:09;;;;;;;10.00;6.47;;;4.80;96.40;;;;;;5043720;28;20194;-88
2022/11/25 08:46:38;;;;;;;5.20;4.32;;;5.30;96.70;;;;;;5047511;28;20210;-87
2022/11/25 08:49:07;;;;;;;6.73;4.57;;;5.70;95.20;;;;;;5048197;28;20194;-89
2022/11/25 08:51:36;;;;;;;6.82;4.43;;;5.90;95.30;;;;;;5049315;28;20345;-89
2022/11/25 08:54:04;;;;;;;7.50;4.10;;;5.90;93.70;;;;;;5048701;28;20249;-87
2022/11/25 08:56:31;;;;;;;4.72;3.25;;;5.70;94.60;;;;;;5050145;28;20198;-89
2022/11/25 08:59:00;;;;;;;5.55;2.95;;;5.40;95.20;;;;;;5049797;28;20197;-88
2022/11/25 09:01:29;;;;;;;5.63;2.58;;;5.30;95.10;;;;;;5048949;28;20216;-88
2022/11/25 09:03:57;;;;;;;5.10;2.00;;;5.30;95.70;;;;;;5041199;28;20647;-88
2022/11/25 09:06:24;;;;;;;3.58;1.88;;;5.20;95.50;;;;;;5050392;28;20296;-87
2022/11/25 09:08:54;;;;;;;1.83;1.63;;;5.10;95.60;;;;;;5051427;28;20313;-87
2022/11/25 09:11:21;;;;;;;2.90;1.45;;;4.90;95.40;;;;;;5048307;28;20313;-87
2022/11/25 09:13:48;;;;;;;1.92;1.63;;;4.90;95.70;;;;;;5051056;28;20652;-86
2022/11/25 09:16:16;;;;;;;3.78;2.00;;;5.00;96.10;;;;;;5048087;28;20288;-88
2022/11/25 09:18:44;;;;;;;4.93;1.70;;;5.10;96.40;;;;;;5051716;28;20210;-88
2022/11/25 09:21:15;;;;;;;3.97;2.85;;;5.20;95.60;;;;;;5053298;28;20210;-89
2022/11/25 09:23:42;;;;;;;3.58;2.33;;;5.40;95.50;;;;;;5050723;28;20320;-88
2022/11/25 09:26:20;;;;;;;4.70;3.35;;;5.70;95.20;;;;;;5049140;28;20221;-85
2022/11/25 09:28:57;;;;;;;2.38;1.70;;;5.90;95.30;;;;;;5050248;28;20741;-87
2022/11/25 09:31:35;;;;;;;5.40;4.07;;;6.00;94.10;;;;;;5049975;28;20202;-87
2022/11/25 09:34:02;;;;;;;3.60;2.47;;;6.20;94.50;;;;;;5047153;28;20917;-88
2022/11/25 09:37:14;;;;;;;5.47;3.92;;;6.40;93.60;;;;;;5050791;28;20210;-87
2022/11/25 09:39:54;;;;;;;5.85;4.07;;;6.40;92.90;;;;;;5044980;28;20286;-88
2022/11/25 09:51:39;;;;;;;7.43;4.25;;;7.70;91.40;;;;;;5050513;28;20696;-85
2022/11/25 09:54:15;;;;;;;5.63;4.28;;;8.60;85.50;;;;;;5085962;23;20236;-86
2022/11/25 09:56:46;;;;;;;4.47;2.80;;;9.50;71.10;;;;;;5046302;28;20213;-87
2022/11/25 09:59:18;;;;;;;4.85;3.42;;;9.70;60.00;;;;;;5039214;28;20225;-88
2022/11/25 10:01:49;;;;;;;5.25;3.58;;;9.90;60.10;;;;;;5049808;28;20745;-88
2022/11/25 10:04:22;;;;;;;6.85;4.72;;;10.40;57.00;;;;;;5042975;28;20217;-87
2022/11/25 10:06:54;;;;;;;4.10;2.88;;;10.60;54.60;;;;;;5045644;28;20201;-87
2022/11/25 10:09:25;;;;;;;4.65;2.85;;;10.60;47.40;;;;;;5044933;28;20659;-88
2022/11/25 10:12:00;;;;;;;5.57;4.03;;;10.60;47.40;;;;;;5047611;28;20289;-87
2022/11/25 10:14:44;;;;;;;2.78;2.33;;;10.70;45.50;;;;;;5047497;28;20209;-87
2022/11/25 10:17:17;;;;;;;4.45;2.45;;;11.00;37.50;;;;;;5047148;28;20260;-86
2022/11/25 10:19:56;;;;;;;5.03;2.28;;;10.90;39.60;;;;;;5041035;28;20199;-87
2022/11/25 10:22:36;;;;;;;3.05;2.45;;;11.20;39.70;;;;;;5040887;28;20310;-87
2022/11/25 10:25:13;;;;;;;6.50;2.17;;;11.50;36.00;;;;;;5048013;28;20660;-88
2022/11/25 10:27:44;;;;;;;5.40;4.10;;;12.00;30.70;;;;;;5048547;28;20635;-86
2022/11/25 10:30:18;;;;;;;6.13;3.88;;;11.90;35.20;;;;;;5043703;28;20208;-87
2022/11/25 10:32:50;;;;;;;4.68;3.70;;;12.30;33.70;;;;;;5040876;28;20643;-88
2022/11/25 10:35:24;;;;;;;4.93;2.00;;;12.30;33.70;;;;;;5042882;28;20285;-86
2022/11/25 10:37:56;;;;;;;3.65;3.10;;;12.20;31.80;;;;;;5044367;28;20240;-89
2022/11/25 10:40:23;;;;;;;4.47;2.72;;;12.20;32.90;;;;;;5045052;28;20202;-86
2022/11/25 10:42:51;;;;;;;4.45;2.53;;;12.50;30.90;;;;;;5045899;28;20237;-86
2022/11/25 10:45:36;;;;;;;3.67;2.10;;;12.60;30.60;;;;;;5046782;28;20209;-85
2022/11/25 10:48:23;;;;;;;3.83;1.98;;;12.60;29.70;;;;;;5046956;28;20289;-89
2022/11/25 10:51:08;;;;;;;3.05;2.03;;;12.40;28.30;;;;;;5044968;28;20212;-88
2022/11/25 10:53:40;;;;;;;2.45;2.00;;;12.10;30.40;;;;;;5053855;28;20240;-89
2022/11/25 10:56:11;;;;;;;2.67;2.10;;;11.70;31.90;;;;;;5050949;28;20336;-88
2022/11/25 10:58:51;;;;;;;3.20;1.90;;;11.40;33.30;;;;;;5053702;28;20667;-88
2022/11/25 11:01:24;;;;;;;1.98;1.60;;;10.80;36.30;;;;;;5055612;28;20252;-88
2022/11/25 11:03:53;;;;;;;2.28;1.85;;;10.70;34.70;;;;;;5045932;28;20677;-87
2022/11/25 11:09:45;;;;;;;1.67;1.50;;;10.00;38.00;;;;;;5042477;28;20206;-89
2022/11/25 11:12:20;;;;;;;3.65;2.20;;;9.60;46.00;;;;;;5042731;28;20222;-88
2022/11/25 11:15:18;;;;;;;4.90;2.30;;;9.50;48.00;;;;;;5047471;28;20284;-88
2022/11/25 11:17:47;;;;;;;2.10;1.65;;;9.50;55.80;;;;;;5048308;28;20212;-87
2022/11/25 11:20:19;;;;;;;4.75;1.83;;;9.50;52.20;;;;;;5053554;28;20347;-89
2022/11/25 11:22:49;;;;;;;2.30;1.80;;;9.70;46.90;;;;;;5045546;28;20202;-87
2022/11/25 11:25:41;;;;;;;2.05;1.70;;;9.70;48.10;;;;;;5045268;28;20860;-87
2022/11/25 11:28:28;;;;;;;2.17;1.73;;;9.80;45.10;;;;;;5053875;28;20681;-88
2022/11/25 11:30:58;;;;;;;2.00;1.63;;;9.90;46.00;;;;;;5047719;28;20205;-87
2022/11/25 11:33:34;;;;;;;3.08;1.67;;;9.80;48.20;;;;;;5045150;28;20253;-88
2022/11/25 11:36:25;;;;;;;2.88;1.52;;;9.70;51.70;;;;;;5050088;28;20194;-86
2022/11/25 11:38:55;;;;;;;1.85;1.55;;;9.70;50.80;;;;;;5044070;28;20286;-87
2022/11/25 11:41:35;;;;;;;2.20;1.85;;;9.90;51.80;;;;;;5053305;28;20198;-86
2022/11/25 11:44:22;;;;;;;2.35;1.50;;;10.10;50.20;;;;;;5049126;28;20285;-89
2022/11/25 11:47:38;;;;;;;1.58;1.30;;;10.30;44.80;;;;;;5049390;28;20214;-90
2022/11/25 11:50:26;;;;;;;1.77;1.23;;;10.20;47.00;;;;;;5052789;28;20273;-89
2022/11/25 11:56:26;;;;;;;3.25;1.35;;;10.10;52.70;;;;;;5036694;28;20597;-90
2022/11/25 12:02:52;;;;;;;1.58;1.02;;;10.70;47.40;;;;;;5036573;28;20162;-87
2022/11/25 12:09:13;;;;;;;2.35;1.42;;;11.60;34.80;;;;;;5054176;28;20217;-86
2022/11/25 12:11:44;;;;;;;1.65;1.17;;;11.80;34.10;;;;;;5049441;28;20205;-87
2022/11/25 12:14:42;;;;;;;1.60;1.17;;;11.70;35.50;;;;;;5045406;28;20318;-87
2022/11/25 12:17:19;;;;;;;2.20;1.33;;;11.60;33.30;;;;;;5053170;28;20197;-84
2022/11/25 12:20:15;;;;;;;1.58;1.10;;;11.40;33.70;;;;;;5048912;28;20210;-88
2022/11/25 12:22:49;;;;;;;1.38;1.05;;;11.10;34.20;;;;;;5050364;28;20296;-88
2022/11/25 12:25:32;;;;;;;1.60;1.20;;;11.00;35.30;;;;;;5025163;28;20213;-87
2022/11/25 12:28:04;;;;;;;1.45;1.17;;;10.80;38.60;;;;;;5043946;28;20597;-88
2022/11/25 12:30:37;;;;;;;2.17;1.50;;;10.70;44.10;;;;;;5037850;28;20636;-87
2022/11/25 12:33:10;;;;;;;1.20;1.10;;;10.60;40.50;;;;;;5044022;28;20229;-88
2022/11/25 12:35:51;;;;;;;3.45;1.60;;;10.60;41.70;;;;;;5040514;28;20291;-87
2022/11/25 12:38:37;;;;;;;1.60;1.33;;;10.60;42.40;;;;;;5047414;28;20229;-87
2022/11/25 12:41:14;;;;;;;4.28;1.77;;;10.50;39.20;;;;;;5034276;28;20201;-86
2022/11/25 12:43:47;;;;;;;5.00;1.50;;;10.50;40.00;;;;;;5049605;28;20212;-86
2022/11/25 12:46:51;;;;;;;4.00;1.08;;;10.60;40.80;;;;;;5053292;28;20289;-86
2022/11/25 12:49:21;;;;;;;2.53;1.20;;;10.60;38.50;;;;;;5047043;28;20643;-86
2022/11/25 12:52:20;;;;;;;2.50;1.52;;;10.50;39.00;;;;;;5043868;28;20666;-86
2022/11/25 12:55:15;;;;;;;3.25;1.60;;;10.60;40.50;;;;;;5042681;28;20321;-87
2022/11/25 13:15:04;;;;;;;2.67;1.35;;;10.50;42.00;;;;;;5050423;28;20719;-87
2022/11/25 13:17:36;;;;;;;2.58;1.40;;;10.50;42.60;;;;;;5061555;28;20205;-86
2022/11/25 13:20:35;;;;;;;4.35;2.33;;;10.60;43.70;;;;;;5062900;28;20284;-86
2022/11/25 13:23:39;;;;;;;2.88;1.50;;;10.80;45.30;;;;;;5053451;28;20209;-87
2022/11/25 13:26:36;;;;;;;4.63;1.50;;;11.00;40.20;;;;;;4991749;28;20203;-86
2022/11/25 13:29:32;;;;;;;5.93;1.80;;;11.10;41.40;;;;;;4988151;28;20671;-88
2022/11/25 13:32:24;;;;;;;2.90;1.50;;;11.10;42.00;;;;;;4987199;28;20291;-87
2022/11/25 13:34:51;;;;;;;3.83;1.48;;;11.00;42.00;;;;;;4996168;28;20227;-87
2022/11/25 13:37:51;;;;;;;2.83;1.52;;;11.00;42.60;;;;;;4991005;28;20211;-86
2022/11/25 13:40:36;;;;;;;3.95;1.42;;;11.00;43.60;;;;;;4984403;28;20208;-86
2022/11/25 13:43:30;;;;;;;5.05;1.85;;;11.10;43.90;;;;;;4988589;28;20204;-86
2022/11/25 13:45:57;;;;;;;3.75;1.60;;;11.20;44.10;;;;;;4937679;28;20210;-89
2022/11/25 13:48:35;;;;;;;6.40;1.60;;;11.20;44.70;;;;;;5002970;28;20224;-88
2022/11/25 13:57:50;;;;;;;4.57;1.80;;;11.10;45.30;;;;;;4984031;28;20206;-90
2022/11/25 14:00:50;;;;;;;4.18;1.63;;;11.10;45.40;;;;;;4990912;28;20200;-89
2022/11/25 14:10:01;;;;;;;3.10;1.70;;;10.80;47.30;;;;;;5047748;28;20602;-85
2022/11/25 14:12:47;;;;;;;3.00;2.00;;;10.70;47.50;;;;;;5045492;28;20662;-84
2022/11/25 14:15:29;;;;;;;6.15;1.98;;;10.70;47.40;;;;;;5042989;28;20200;-89
2022/11/25 14:18:42;;;;;;;3.38;1.80;;;10.60;47.80;;;;;;5041200;28;22015;-87
2022/11/25 14:21:24;;;;;;;3.22;1.65;;;10.60;51.60;;;;;;5046578;28;20217;-87